Terminal Aerodrome Forecast
Issued by NWS

Home | Current Version | Previous Version | Text Only | Print | Product List | Glossary On
Versions: 1 2 3 4 5 6 7 8 9 10 11 12 13 14
457
FTUS43 KLSX 221720
TAFCPS
TAF
KCPS 221720Z 2218/2318 08014KT P6SM VCSH OVC060
     FM222200 07012KT 6SM -SHRA OVC050
     FM230300 07011KT 6SM -SHRA OVC030
     FM231200 04009KT P6SM VCSH OVC025=

USA.gov is the U.S. government's official web portal to all federal, state and local government web resources and services.